sensor_id;sensor_type;location;lat;lon;timestamp;temperature;humidity
20204;DHT22;10261;49.010;12.034;2023-08-12T00:00:02;15.30;99.90
20204;DHT22;10261;49.010;12.034;2023-08-12T00:01:10;15.40;99.90
20204;DHT22;10261;49.010;12.034;2023-08-12T00:02:13;15.30;99.90
20204;DHT22;10261;49.010;12.034;2023-08-12T00:03:15;15.20;99.90
20204;DHT22;10261;49.010;12.034;2023-08-12T00:04:18;15.30;99.90
20204;DHT22;10261;49.010;12.034;2023-08-12T00:05:20;15.20;99.90
20204;DHT22;10261;49.010;12.034;2023-08-12T00:06:23;15.20;99.90
20204;DHT22;10261;49.010;12.034;2023-08-12T00:07:25;15.20;99.90
20204;DHT22;10261;49.010;12.034;2023-08-12T00:08:28;15.10;99.90
20204;DHT22;10261;49.010;12.034;2023-08-12T00:09:30;15.10;99.90
20204;DHT22;10261;49.010;12.034;2023-08-12T00:10:34;15.20;99.90
20204;DHT22;10261;49.010;12.034;2023-08-12T00:11:36;15.20;99.90
20204;DHT22;10261;49.010;12.034;2023-08-12T00:12:39;15.20;99.90
20204;DHT22;10261;49.010;12.034;2023-08-12T00:13:42;15.20;99.90
20204;DHT22;10261;49.010;12.034;2023-08-12T00:14:44;15.10;99.90
20204;DHT22;10261;49.010;12.034;2023-08-12T00:15:45;15.10;99.90
20204;DHT22;10261;49.010;12.034;2023-08-12T00:16:48;15.10;99.90
20204;DHT22;10261;49.010;12.034;2023-08-12T00:17:50;15.10;99.90
20204;DHT22;10261;49.010;12.034;2023-08-12T00:18:53;15.10;99.90
20204;DHT22;10261;49.010;12.034;2023-08-12T00:19:55;15.10;99.90
20204;DHT22;10261;49.010;12.034;2023-08-12T00:20:58;15.20;99.90
20204;DHT22;10261;49.010;12.034;2023-08-12T00:22:01;15.10;99.90
20204;DHT22;10261;49.010;12.034;2023-08-12T00:23:04;15.10;99.90
20204;DHT22;10261;49.010;12.034;2023-08-12T00:24:06;15.10;99.90
20204;DHT22;10261;49.010;12.034;2023-08-12T00:25:09;15.00;99.90
20204;DHT22;10261;49.010;12.034;2023-08-12T00:26:12;14.90;99.90
20204;DHT22;10261;49.010;12.034;2023-08-12T00:27:14;15.00;99.90
20204;DHT22;10261;49.010;12.034;2023-08-12T00:28:17;15.10;99.90
20204;DHT22;10261;49.010;12.034;2023-08-12T00:29:19;15.10;99.90
20204;DHT22;10261;49.010;12.034;2023-08-12T00:30:22;15.10;99.90
20204;DHT22;10261;49.010;12.034;2023-08-12T00:31:24;15.10;99.90
20204;DHT22;10261;49.010;12.034;2023-08-12T00:32:27;15.10;99.90
20204;DHT22;10261;49.010;12.034;2023-08-12T00:33:29;15.00;99.90
20204;DHT22;10261;49.010;12.034;2023-08-12T00:34:32;15.00;99.90
20204;DHT22;10261;49.010;12.034;2023-08-12T00:35:34;15.00;99.90
20204;DHT22;10261;49.010;12.034;2023-08-12T00:36:37;15.00;99.90
20204;DHT22;10261;49.010;12.034;2023-08-12T00:37:39;15.00;99.90
20204;DHT22;10261;49.010;12.034;2023-08-12T00:38:42;15.00;99.90
20204;DHT22;10261;49.010;12.034;2023-08-12T00:39:43;14.90;99.90
20204;DHT22;10261;49.010;12.034;2023-08-12T00:40:46;14.90;99.90
20204;DHT22;10261;49.010;12.034;2023-08-12T00:41:50;14.90;99.90
20204;DHT22;10261;49.010;12.034;2023-08-12T00:42:53;14.90;99.90
20204;DHT22;10261;49.010;12.034;2023-08-12T00:43:55;14.90;99.90
20204;DHT22;10261;49.010;12.034;2023-08-12T00:44:58;14.90;99.90
20204;DHT22;10261;49.010;12.034;2023-08-12T00:46:00;14.90;99.90
20204;DHT22;10261;49.010;12.034;2023-08-12T00:47:04;14.90;99.90
20204;DHT22;10261;49.010;12.034;2023-08-12T00:48:08;14.80;99.90
20204;DHT22;10261;49.010;12.034;2023-08-12T00:49:15;14.80;99.90
20204;DHT22;10261;49.010;12.034;2023-08-12T00:50:17;14.80;99.90
20204;DHT22;10261;49.010;12.034;2023-08-12T00:51:21;14.80;99.90
20204;DHT22;10261;49.010;12.034;2023-08-12T00:52:23;14.90;99.90
20204;DHT22;10261;49.010;12.034;2023-08-12T00:53:26;14.80;99.90
20204;DHT22;10261;49.010;12.034;2023-08-12T00:54:28;14.80;99.90
20204;DHT22;10261;49.010;12.034;2023-08-12T00:55:31;14.80;99.90
20204;DHT22;10261;49.010;12.034;2023-08-12T00:56:35;14.80;99.90
20204;DHT22;10261;49.010;12.034;2023-08-12T00:57:40;14.70;99.90
20204;DHT22;10261;49.010;12.034;2023-08-12T00:58:43;14.60;99.90
20204;DHT22;10261;49.010;12.034;2023-08-12T00:59:46;14.70;99.90
20204;DHT22;10261;49.010;12.034;2023-08-12T01:00:49;14.70;99.90
20204;DHT22;10261;49.010;12.034;2023-08-12T01:01:52;14.70;99.90
20204;DHT22;10261;49.010;12.034;2023-08-12T01:02:54;14.60;99.90
20204;DHT22;10261;49.010;12.034;2023-08-12T01:03:59;14.70;99.90
20204;DHT22;10261;49.010;12.034;2023-08-12T01:05:01;14.70;99.90
20204;DHT22;10261;49.010;12.034;2023-08-12T01:06:04;14.70;99.90
20204;DHT22;10261;49.010;12.034;2023-08-12T01:07:08;14.80;99.90
20204;DHT22;10261;49.010;12.034;2023-08-12T01:08:12;14.80;99.90
20204;DHT22;10261;49.010;12.034;2023-08-12T01:09:15;14.70;99.90
20204;DHT22;10261;49.010;12.034;2023-08-12T01:10:18;14.60;99.90
20204;DHT22;10261;49.010;12.034;2023-08-12T01:11:29;14.60;99.90
20204;DHT22;10261;49.010;12.034;2023-08-12T01:12:39;14.60;99.90
20204;DHT22;10261;49.010;12.034;2023-08-12T01:13:49;14.80;99.90
20204;DHT22;10261;49.010;12.034;2023-08-12T01:14:58;14.80;99.90
20204;DHT22;10261;49.010;12.034;2023-08-12T01:16:03;14.80;99.90
20204;DHT22;10261;49.010;12.034;2023-08-12T01:17:09;14.80;99.90
20204;DHT22;10261;49.010;12.034;2023-08-12T01:18:13;14.70;99.90
20204;DHT22;10261;49.010;12.034;2023-08-12T01:19:24;14.70;99.90
20204;DHT22;10261;49.010;12.034;2023-08-12T01:20:31;14.60;99.90
20204;DHT22;10261;49.010;12.034;2023-08-12T01:21:36;14.60;99.90
20204;DHT22;10261;49.010;12.034;2023-08-12T01:22:44;14.80;99.90
20204;DHT22;10261;49.010;12.034;2023-08-12T01:23:49;15.10;99.90
20204;DHT22;10261;49.010;12.034;2023-08-12T01:24:51;15.20;99.90
20204;DHT22;10261;49.010;12.034;2023-08-12T01:25:54;15.10;99.90
20204;DHT22;10261;49.010;12.034;2023-08-12T01:26:56;14.80;99.90
20204;DHT22;10261;49.010;12.034;2023-08-12T01:27:58;14.70;99.90
20204;DHT22;10261;49.010;12.034;2023-08-12T01:29:01;14.60;99.90
20204;DHT22;10261;49.010;12.034;2023-08-12T01:30:06;14.50;99.90
20204;DHT22;10261;49.010;12.034;2023-08-12T01:31:15;14.50;99.90
20204;DHT22;10261;49.010;12.034;2023-08-12T01:32:24;14.40;99.90
20204;DHT22;10261;49.010;12.034;2023-08-12T01:33:34;14.40;99.90
20204;DHT22;10261;49.010;12.034;2023-08-12T01:34:42;14.40;99.90
20204;DHT22;10261;49.010;12.034;2023-08-12T01:35:51;14.50;99.90
20204;DHT22;10261;49.010;12.034;2023-08-12T01:36:56;14.40;99.90
20204;DHT22;10261;49.010;12.034;2023-08-12T01:38:04;14.40;99.90
20204;DHT22;10261;49.010;12.034;2023-08-12T01:39:10;14.40;99.90
20204;DHT22;10261;49.010;12.034;2023-08-12T01:40:14;14.40;99.90
20204;DHT22;10261;49.010;12.034;2023-08-12T01:41:16;14.30;99.90
20204;DHT22;10261;49.010;12.034;2023-08-12T01:42:21;14.30;99.90
20204;DHT22;10261;49.010;12.034;2023-08-12T01:43:24;14.40;99.90
20204;DHT22;10261;49.010;12.034;2023-08-12T01:44:28;14.40;99.90
20204;DHT22;10261;49.010;12.034;2023-08-12T01:45:30;14.50;99.90
20204;DHT22;10261;49.010;12.034;2023-08-12T01:46:33;14.50;99.90
20204;DHT22;10261;49.010;12.034;2023-08-12T01:47:35;14.50;99.90
20204;DHT22;10261;49.010;12.034;2023-08-12T01:48:38;14.40;99.90
20204;DHT22;10261;49.010;12.034;2023-08-12T01:49:40;14.40;99.90
20204;DHT22;10261;49.010;12.034;2023-08-12T01:50:43;14.50;99.90
20204;DHT22;10261;49.010;12.034;2023-08-12T01:51:49;14.40;99.90
20204;DHT22;10261;49.010;12.034;2023-08-12T01:52:52;14.40;99.90
20204;DHT22;10261;49.010;12.034;2023-08-12T01:53:54;14.40;99.90
20204;DHT22;10261;49.010;12.034;2023-08-12T01:54:58;14.40;99.90
20204;DHT22;10261;49.010;12.034;2023-08-12T01:56:00;14.50;99.90
20204;DHT22;10261;49.010;12.034;2023-08-12T01:57:04;14.50;99.90
20204;DHT22;10261;49.010;12.034;2023-08-12T01:58:07;14.50;99.90
20204;DHT22;10261;49.010;12.034;2023-08-12T01:59:10;14.40;99.90
20204;DHT22;10261;49.010;12.034;2023-08-12T02:00:12;14.40;99.90
20204;DHT22;10261;49.010;12.034;2023-08-12T02:01:15;14.30;99.90
20204;DHT22;10261;49.010;12.034;2023-08-12T02:02:17;14.30;99.90
20204;DHT22;10261;49.010;12.034;2023-08-12T02:03:20;14.30;99.90
20204;DHT22;10261;49.010;12.034;2023-08-12T02:04:22;14.30;99.90
20204;DHT22;10261;49.010;12.034;2023-08-12T02:05:25;14.30;99.90
20204;DHT22;10261;49.010;12.034;2023-08-12T02:06:27;14.20;99.90
20204;DHT22;10261;49.010;12.034;2023-08-12T02:07:30;14.30;99.90
20204;DHT22;10261;49.010;12.034;2023-08-12T02:08:32;14.30;99.90
20204;DHT22;10261;49.010;12.034;2023-08-12T02:09:35;14.20;99.90
20204;DHT22;10261;49.010;12.034;2023-08-12T02:10:38;14.10;99.90
20204;DHT22;10261;49.010;12.034;2023-08-12T02:11:41;14.10;99.90
20204;DHT22;10261;49.010;12.034;2023-08-12T02:12:43;14.10;99.90
20204;DHT22;10261;49.010;12.034;2023-08-12T02:13:46;14.10;99.90
20204;DHT22;10261;49.010;12.034;2023-08-12T02:14:48;14.20;99.90
20204;DHT22;10261;49.010;12.034;2023-08-12T02:15:51;14.20;99.90
20204;DHT22;10261;49.010;12.034;2023-08-12T02:16:53;14.10;99.90
20204;DHT22;10261;49.010;12.034;2023-08-12T02:17:56;14.20;99.90
20204;DHT22;10261;49.010;12.034;2023-08-12T02:18:58;14.20;99.90
20204;DHT22;10261;49.010;12.034;2023-08-12T02:20:01;14.10;99.90
20204;DHT22;10261;49.010;12.034;2023-08-12T02:21:03;14.00;99.90
20204;DHT22;10261;49.010;12.034;2023-08-12T02:22:04;14.00;99.90
20204;DHT22;10261;49.010;12.034;2023-08-12T02:23:07;14.10;99.90
20204;DHT22;10261;49.010;12.034;2023-08-12T02:24:09;14.10;99.90
20204;DHT22;10261;49.010;12.034;2023-08-12T02:25:12;14.20;99.90
20204;DHT22;10261;49.010;12.034;2023-08-12T02:26:15;14.20;99.90
20204;DHT22;10261;49.010;12.034;2023-08-12T02:27:18;14.20;99.90
20204;DHT22;10261;49.010;12.034;2023-08-12T02:28:20;14.20;99.90
20204;DHT22;10261;49.010;12.034;2023-08-12T02:29:24;14.10;99.90
20204;DHT22;10261;49.010;12.034;2023-08-12T02:30:28;14.10;99.90
20204;DHT22;10261;49.010;12.034;2023-08-12T02:31:31;14.10;99.90
20204;DHT22;10261;49.010;12.034;2023-08-12T02:32:33;14.10;99.90
20204;DHT22;10261;49.010;12.034;2023-08-12T02:33:36;14.00;99.90
20204;DHT22;10261;49.010;12.034;2023-08-12T02:34:38;13.90;99.90
20204;DHT22;10261;49.010;12.034;2023-08-12T02:35:41;14.00;99.90
20204;DHT22;10261;49.010;12.034;2023-08-12T02:36:44;14.10;99.90
20204;DHT22;10261;49.010;12.034;2023-08-12T02:37:47;14.10;99.90
20204;DHT22;10261;49.010;12.034;2023-08-12T02:38:49;14.10;99.90
20204;DHT22;10261;49.010;12.034;2023-08-12T02:39:52;14.10;99.90
20204;DHT22;10261;49.010;12.034;2023-08-12T02:40:54;14.10;99.90
20204;DHT22;10261;49.010;12.034;2023-08-12T02:41:58;14.00;99.90
20204;DHT22;10261;49.010;12.034;2023-08-12T02:43:00;13.90;99.90
20204;DHT22;10261;49.010;12.034;2023-08-12T02:44:03;13.90;99.90
20204;DHT22;10261;49.010;12.034;2023-08-12T02:45:06;13.80;99.90
20204;DHT22;10261;49.010;12.034;2023-08-12T02:46:09;13.80;99.90
20204;DHT22;10261;49.010;12.034;2023-08-12T02:47:11;13.80;99.90
20204;DHT22;10261;49.010;12.034;2023-08-12T02:48:14;13.80;99.90
20204;DHT22;10261;49.010;12.034;2023-08-12T02:49:16;13.80;99.90
20204;DHT22;10261;49.010;12.034;2023-08-12T02:50:18;13.90;99.90
20204;DHT22;10261;49.010;12.034;2023-08-12T02:51:21;13.90;99.90
20204;DHT22;10261;49.010;12.034;2023-08-12T02:52:23;13.90;99.90
20204;DHT22;10261;49.010;12.034;2023-08-12T02:53:26;13.90;99.90
20204;DHT22;10261;49.010;12.034;2023-08-12T02:54:28;13.80;99.90
20204;DHT22;10261;49.010;12.034;2023-08-12T02:55:30;13.90;99.90
20204;DHT22;10261;49.010;12.034;2023-08-12T02:56:33;13.90;99.90
20204;DHT22;10261;49.010;12.034;2023-08-12T02:57:38;13.80;99.90
20204;DHT22;10261;49.010;12.034;2023-08-12T02:58:40;13.80;99.90
20204;DHT22;10261;49.010;12.034;2023-08-12T02:59:42;13.80;99.90
20204;DHT22;10261;49.010;12.034;2023-08-12T03:00:44;13.90;99.90
20204;DHT22;10261;49.010;12.034;2023-08-12T03:01:47;13.80;99.90
20204;DHT22;10261;49.010;12.034;2023-08-12T03:02:49;13.90;99.90
20204;DHT22;10261;49.010;12.034;2023-08-12T03:03:53;13.70;99.90
20204;DHT22;10261;49.010;12.034;2023-08-12T03:04:56;13.70;99.90
20204;DHT22;10261;49.010;12.034;2023-08-12T03:05:59;13.70;99.90
20204;DHT22;10261;49.010;12.034;2023-08-12T03:07:01;13.70;99.90
20204;DHT22;10261;49.010;12.034;2023-08-12T03:08:05;13.70;99.90
20204;DHT22;10261;49.010;12.034;2023-08-12T03:09:07;13.80;99.90
20204;DHT22;10261;49.010;12.034;2023-08-12T03:10:10;13.80;99.90
20204;DHT22;10261;49.010;12.034;2023-08-12T03:11:12;13.80;99.90
20204;DHT22;10261;49.010;12.034;2023-08-12T03:12:15;13.80;99.90
20204;DHT22;10261;49.010;12.034;2023-08-12T03:13:18;13.90;99.90
20204;DHT22;10261;49.010;12.034;2023-08-12T03:14:21;13.90;99.90
20204;DHT22;10261;49.010;12.034;2023-08-12T03:15:23;14.00;99.90
20204;DHT22;10261;49.010;12.034;2023-08-12T03:16:26;14.00;99.90
20204;DHT22;10261;49.010;12.034;2023-08-12T03:17:28;13.90;99.90
20204;DHT22;10261;49.010;12.034;2023-08-12T03:18:31;13.90;99.90
20204;DHT22;10261;49.010;12.034;2023-08-12T03:19:33;13.90;99.90
20204;DHT22;10261;49.010;12.034;2023-08-12T03:20:37;13.80;99.90
20204;DHT22;10261;49.010;12.034;2023-08-12T03:21:39;13.80;99.90
20204;DHT22;10261;49.010;12.034;2023-08-12T03:22:41;13.80;99.90
20204;DHT22;10261;49.010;12.034;2023-08-12T03:23:43;13.90;99.90
20204;DHT22;10261;49.010;12.034;2023-08-12T03:24:47;13.90;99.90
20204;DHT22;10261;49.010;12.034;2023-08-12T03:25:49;13.90;99.90
20204;DHT22;10261;49.010;12.034;2023-08-12T03:26:51;13.80;99.90
20204;DHT22;10261;49.010;12.034;2023-08-12T03:27:54;13.80;99.90
20204;DHT22;10261;49.010;12.034;2023-08-12T03:28:57;13.80;99.90
20204;DHT22;10261;49.010;12.034;2023-08-12T03:30:00;13.80;99.90
20204;DHT22;10261;49.010;12.034;2023-08-12T03:31:02;13.80;99.90
20204;DHT22;10261;49.010;12.034;2023-08-12T03:32:05;13.70;99.90
20204;DHT22;10261;49.010;12.034;2023-08-12T03:33:07;13.70;99.90
20204;DHT22;10261;49.010;12.034;2023-08-12T03:34:10;13.60;99.90
20204;DHT22;10261;49.010;12.034;2023-08-12T03:35:12;13.50;99.90
20204;DHT22;10261;49.010;12.034;2023-08-12T03:36:15;13.60;99.90
20204;DHT22;10261;49.010;12.034;2023-08-12T03:37:16;13.60;99.90
20204;DHT22;10261;49.010;12.034;2023-08-12T03:38:19;13.50;99.90
20204;DHT22;10261;49.010;12.034;2023-08-12T03:39:21;13.60;99.90
20204;DHT22;10261;49.010;12.034;2023-08-12T03:40:24;13.50;99.90
20204;DHT22;10261;49.010;12.034;2023-08-12T03:41:26;13.60;99.90
20204;DHT22;10261;49.010;12.034;2023-08-12T03:42:29;13.70;99.90
20204;DHT22;10261;49.010;12.034;2023-08-12T03:43:31;13.60;99.90
20204;DHT22;10261;49.010;12.034;2023-08-12T03:44:36;13.60;99.90
20204;DHT22;10261;49.010;12.034;2023-08-12T03:45:42;13.60;99.90
20204;DHT22;10261;49.010;12.034;2023-08-12T03:46:45;13.50;99.90
20204;DHT22;10261;49.010;12.034;2023-08-12T03:47:47;13.50;99.90
20204;DHT22;10261;49.010;12.034;2023-08-12T03:48:50;13.40;99.90
20204;DHT22;10261;49.010;12.034;2023-08-12T03:49:53;13.40;99.90
20204;DHT22;10261;49.010;12.034;2023-08-12T03:50:56;13.40;99.90
20204;DHT22;10261;49.010;12.034;2023-08-12T03:51:57;13.60;99.90
20204;DHT22;10261;49.010;12.034;2023-08-12T03:53:00;13.50;99.90
20204;DHT22;10261;49.010;12.034;2023-08-12T03:54:02;13.50;99.90
20204;DHT22;10261;49.010;12.034;2023-08-12T03:55:07;13.50;99.90
20204;DHT22;10261;49.010;12.034;2023-08-12T03:56:09;13.50;99.90
20204;DHT22;10261;49.010;12.034;2023-08-12T03:57:16;13.40;99.90
20204;DHT22;10261;49.010;12.034;2023-08-12T03:58:19;13.40;99.90
20204;DHT22;10261;49.010;12.034;2023-08-12T03:59:22;13.40;99.90
20204;DHT22;10261;49.010;12.034;2023-08-12T04:00:25;13.40;99.90
20204;DHT22;10261;49.010;12.034;2023-08-12T04:01:28;13.50;99.90
20204;DHT22;10261;49.010;12.034;2023-08-12T04:02:30;13.60;99.90
20204;DHT22;10261;49.010;12.034;2023-08-12T04:03:33;13.60;99.90
20204;DHT22;10261;49.010;12.034;2023-08-12T04:04:36;13.60;99.90
20204;DHT22;10261;49.010;12.034;2023-08-12T04:05:47;13.60;99.90
20204;DHT22;10261;49.010;12.034;2023-08-12T04:06:49;13.50;99.90
20204;DHT22;10261;49.010;12.034;2023-08-12T04:07:53;13.50;99.90
20204;DHT22;10261;49.010;12.034;2023-08-12T04:08:55;12.20;99.90
20204;DHT22;10261;49.010;12.034;2023-08-12T04:09:58;13.70;99.90
20204;DHT22;10261;49.010;12.034;2023-08-12T04:11:00;13.70;99.90
20204;DHT22;10261;49.010;12.034;2023-08-12T04:12:03;13.60;99.90
20204;DHT22;10261;49.010;12.034;2023-08-12T04:13:05;13.60;99.90
20204;DHT22;10261;49.010;12.034;2023-08-12T04:14:08;13.60;99.90
20204;DHT22;10261;49.010;12.034;2023-08-12T04:15:10;13.70;99.90
20204;DHT22;10261;49.010;12.034;2023-08-12T04:16:14;13.70;99.90
20204;DHT22;10261;49.010;12.034;2023-08-12T04:17:16;13.60;99.90
20204;DHT22;10261;49.010;12.034;2023-08-12T04:18:19;13.60;99.90
20204;DHT22;10261;49.010;12.034;2023-08-12T04:19:21;13.50;99.90
20204;DHT22;10261;49.010;12.034;2023-08-12T04:20:24;13.50;99.90
20204;DHT22;10261;49.010;12.034;2023-08-12T04:21:27;13.50;99.90
20204;DHT22;10261;49.010;12.034;2023-08-12T04:22:31;13.50;99.90
20204;DHT22;10261;49.010;12.034;2023-08-12T04:23:32;13.40;99.90
20204;DHT22;10261;49.010;12.034;2023-08-12T04:24:35;13.30;99.90
20204;DHT22;10261;49.010;12.034;2023-08-12T04:25:37;13.30;99.90
20204;DHT22;10261;49.010;12.034;2023-08-12T04:26:40;13.40;99.90
20204;DHT22;10261;49.010;12.034;2023-08-12T04:27:42;13.50;99.90
20204;DHT22;10261;49.010;12.034;2023-08-12T04:28:45;13.50;99.90
20204;DHT22;10261;49.010;12.034;2023-08-12T04:29:47;13.50;99.90
20204;DHT22;10261;49.010;12.034;2023-08-12T04:30:50;13.50;99.90
20204;DHT22;10261;49.010;12.034;2023-08-12T04:31:54;13.50;99.90
20204;DHT22;10261;49.010;12.034;2023-08-12T04:32:57;13.60;99.90
20204;DHT22;10261;49.010;12.034;2023-08-12T04:33:58;13.50;99.90
20204;DHT22;10261;49.010;12.034;2023-08-12T04:35:01;13.60;99.90
20204;DHT22;10261;49.010;12.034;2023-08-12T04:36:05;13.60;99.90
20204;DHT22;10261;49.010;12.034;2023-08-12T04:37:08;13.50;99.90
20204;DHT22;10261;49.010;12.034;2023-08-12T04:38:10;13.50;99.90
20204;DHT22;10261;49.010;12.034;2023-08-12T04:39:13;13.50;99.90
20204;DHT22;10261;49.010;12.034;2023-08-12T04:40:15;13.50;99.90
20204;DHT22;10261;49.010;12.034;2023-08-12T04:41:18;13.40;99.90
20204;DHT22;10261;49.010;12.034;2023-08-12T04:42:20;13.40;99.90
20204;DHT22;10261;49.010;12.034;2023-08-12T04:43:26;13.50;99.90
20204;DHT22;10261;49.010;12.034;2023-08-12T04:44:28;13.60;99.90
20204;DHT22;10261;49.010;12.034;2023-08-12T04:45:30;13.60;99.90
20204;DHT22;10261;49.010;12.034;2023-08-12T04:46:33;13.60;99.90
20204;DHT22;10261;49.010;12.034;2023-08-12T04:47:38;13.60;99.90
20204;DHT22;10261;49.010;12.034;2023-08-12T04:48:40;13.60;99.90
20204;DHT22;10261;49.010;12.034;2023-08-12T04:49:42;13.60;99.90
20204;DHT22;10261;49.010;12.034;2023-08-12T04:50:44;13.50;99.90
20204;DHT22;10261;49.010;12.034;2023-08-12T04:51:47;13.60;99.90
20204;DHT22;10261;49.010;12.034;2023-08-12T04:52:49;13.60;99.90
20204;DHT22;10261;49.010;12.034;2023-08-12T04:53:52;13.60;99.90
20204;DHT22;10261;49.010;12.034;2023-08-12T04:54:54;13.60;99.90
20204;DHT22;10261;49.010;12.034;2023-08-12T04:55:57;13.50;99.90
20204;DHT22;10261;49.010;12.034;2023-08-12T04:56:59;12.70;99.90
20204;DHT22;10261;49.010;12.034;2023-08-12T04:58:02;13.70;99.90
20204;DHT22;10261;49.010;12.034;2023-08-12T04:59:04;13.70;99.90
20204;DHT22;10261;49.010;12.034;2023-08-12T05:00:08;13.70;99.90
20204;DHT22;10261;49.010;12.034;2023-08-12T05:01:11;13.60;99.90
20204;DHT22;10261;49.010;12.034;2023-08-12T05:02:14;13.60;99.90
20204;DHT22;10261;49.010;12.034;2023-08-12T05:03:18;13.60;99.90
20204;DHT22;10261;49.010;12.034;2023-08-12T05:04:21;13.60;99.90
20204;DHT22;10261;49.010;12.034;2023-08-12T05:05:22;13.60;99.90
20204;DHT22;10261;49.010;12.034;2023-08-12T05:06:24;13.70;99.90
20204;DHT22;10261;49.010;12.034;2023-08-12T05:07:27;13.70;99.90
20204;DHT22;10261;49.010;12.034;2023-08-12T05:08:29;13.80;99.90
20204;DHT22;10261;49.010;12.034;2023-08-12T05:09:32;13.70;99.90
20204;DHT22;10261;49.010;12.034;2023-08-12T05:10:34;13.80;99.90
20204;DHT22;10261;49.010;12.034;2023-08-12T05:11:37;13.80;99.90
20204;DHT22;10261;49.010;12.034;2023-08-12T05:12:39;13.90;99.90
20204;DHT22;10261;49.010;12.034;2023-08-12T05:13:42;13.90;99.90
20204;DHT22;10261;49.010;12.034;2023-08-12T05:14:47;13.90;99.90
20204;DHT22;10261;49.010;12.034;2023-08-12T05:15:50;13.90;99.90
20204;DHT22;10261;49.010;12.034;2023-08-12T05:16:52;13.90;99.90
20204;DHT22;10261;49.010;12.034;2023-08-12T05:17:55;14.00;99.90
20204;DHT22;10261;49.010;12.034;2023-08-12T05:18:58;14.00;99.90
20204;DHT22;10261;49.010;12.034;2023-08-12T05:20:01;14.00;99.90
20204;DHT22;10261;49.010;12.034;2023-08-12T05:21:03;14.00;99.90
20204;DHT22;10261;49.010;12.034;2023-08-12T05:22:06;14.00;99.90
20204;DHT22;10261;49.010;12.034;2023-08-12T05:23:08;14.10;99.90
20204;DHT22;10261;49.010;12.034;2023-08-12T05:24:11;14.10;99.90
20204;DHT22;10261;49.010;12.034;2023-08-12T05:25:13;14.10;99.90
20204;DHT22;10261;49.010;12.034;2023-08-12T05:26:16;14.10;99.90
20204;DHT22;10261;49.010;12.034;2023-08-12T05:27:18;14.10;99.90
20204;DHT22;10261;49.010;12.034;2023-08-12T05:28:21;14.10;99.90
20204;DHT22;10261;49.010;12.034;2023-08-12T05:29:23;14.20;99.90
20204;DHT22;10261;49.010;12.034;2023-08-12T05:30:25;14.20;99.90
20204;DHT22;10261;49.010;12.034;2023-08-12T05:31:29;14.20;99.90
20204;DHT22;10261;49.010;12.034;2023-08-12T05:32:32;14.30;99.90
20204;DHT22;10261;49.010;12.034;2023-08-12T05:33:34;14.30;99.90
20204;DHT22;10261;49.010;12.034;2023-08-12T05:34:38;14.40;99.90
20204;DHT22;10261;49.010;12.034;2023-08-12T05:35:40;14.30;99.90
20204;DHT22;10261;49.010;12.034;2023-08-12T05:36:43;14.40;99.90
20204;DHT22;10261;49.010;12.034;2023-08-12T05:37:45;14.40;99.90
20204;DHT22;10261;49.010;12.034;2023-08-12T05:38:47;14.40;99.90
20204;DHT22;10261;49.010;12.034;2023-08-12T05:39:49;14.40;99.90
20204;DHT22;10261;49.010;12.034;2023-08-12T05:40:52;14.40;99.90
20204;DHT22;10261;49.010;12.034;2023-08-12T05:41:54;14.40;99.90
20204;DHT22;10261;49.010;12.034;2023-08-12T05:42:57;14.50;99.90
20204;DHT22;10261;49.010;12.034;2023-08-12T05:43:59;14.50;99.90
20204;DHT22;10261;49.010;12.034;2023-08-12T05:45:02;14.60;99.90
20204;DHT22;10261;49.010;12.034;2023-08-12T05:46:08;14.60;99.90
20204;DHT22;10261;49.010;12.034;2023-08-12T05:47:11;14.70;99.90
20204;DHT22;10261;49.010;12.034;2023-08-12T05:48:13;14.70;99.90
20204;DHT22;10261;49.010;12.034;2023-08-12T05:49:16;14.80;99.90
20204;DHT22;10261;49.010;12.034;2023-08-12T05:50:19;14.80;99.90
20204;DHT22;10261;49.010;12.034;2023-08-12T05:51:22;14.80;99.90
20204;DHT22;10261;49.010;12.034;2023-08-12T05:52:24;14.80;99.90
20204;DHT22;10261;49.010;12.034;2023-08-12T05:53:27;14.90;99.90
20204;DHT22;10261;49.010;12.034;2023-08-12T05:54:29;14.90;99.90
20204;DHT22;10261;49.010;12.034;2023-08-12T05:55:33;14.90;99.90
20204;DHT22;10261;49.010;12.034;2023-08-12T05:56:35;15.00;99.90
20204;DHT22;10261;49.010;12.034;2023-08-12T05:57:38;15.00;99.90
20204;DHT22;10261;49.010;12.034;2023-08-12T05:58:39;15.10;99.90
20204;DHT22;10261;49.010;12.034;2023-08-12T05:59:42;15.10;99.90
20204;DHT22;10261;49.010;12.034;2023-08-12T06:00:44;15.10;99.90
20204;DHT22;10261;49.010;12.034;2023-08-12T06:01:48;15.20;99.90
20204;DHT22;10261;49.010;12.034;2023-08-12T06:02:50;15.30;99.90
20204;DHT22;10261;49.010;12.034;2023-08-12T06:03:53;15.20;99.90
20204;DHT22;10261;49.010;12.034;2023-08-12T06:04:55;15.30;99.90
20204;DHT22;10261;49.010;12.034;2023-08-12T06:05:59;15.40;99.90
20204;DHT22;10261;49.010;12.034;2023-08-12T06:07:01;15.40;99.90
20204;DHT22;10261;49.010;12.034;2023-08-12T06:08:05;15.50;99.90
20204;DHT22;10261;49.010;12.034;2023-08-12T06:09:07;15.50;99.90
20204;DHT22;10261;49.010;12.034;2023-08-12T06:10:10;15.60;99.90
20204;DHT22;10261;49.010;12.034;2023-08-12T06:11:11;15.60;99.90
20204;DHT22;10261;49.010;12.034;2023-08-12T06:12:14;15.60;99.90
20204;DHT22;10261;49.010;12.034;2023-08-12T06:13:16;15.60;99.90
20204;DHT22;10261;49.010;12.034;2023-08-12T06:14:19;15.70;99.90
20204;DHT22;10261;49.010;12.034;2023-08-12T06:15:21;15.70;99.90
20204;DHT22;10261;49.010;12.034;2023-08-12T06:16:24;15.80;99.90
20204;DHT22;10261;49.010;12.034;2023-08-12T06:17:26;15.80;99.90
20204;DHT22;10261;49.010;12.034;2023-08-12T06:18:29;15.80;99.90
20204;DHT22;10261;49.010;12.034;2023-08-12T06:19:33;16.00;99.90
20204;DHT22;10261;49.010;12.034;2023-08-12T06:20:36;16.10;99.90
20204;DHT22;10261;49.010;12.034;2023-08-12T06:21:39;16.10;99.90
20204;DHT22;10261;49.010;12.034;2023-08-12T06:22:42;16.20;99.90
20204;DHT22;10261;49.010;12.034;2023-08-12T06:23:45;16.30;99.90
20204;DHT22;10261;49.010;12.034;2023-08-12T06:24:47;16.30;99.90
20204;DHT22;10261;49.010;12.034;2023-08-12T06:25:49;16.40;99.90
20204;DHT22;10261;49.010;12.034;2023-08-12T06:26:52;16.30;99.90
20204;DHT22;10261;49.010;12.034;2023-08-12T06:27:55;16.40;99.90
20204;DHT22;10261;49.010;12.034;2023-08-12T06:28:57;16.60;99.90
20204;DHT22;10261;49.010;12.034;2023-08-12T06:30:00;16.60;99.90
20204;DHT22;10261;49.010;12.034;2023-08-12T06:31:02;16.80;99.90